sensor_id;sensor_type;location;lat;lon;timestamp;pressure;altitude;pressure_sealevel;temperature;humidity
47636;BME280;33364;50.766;15.338;2023-08-08T00:01:21;94832.09;;;11.14;87.55
47636;BME280;33364;50.766;15.338;2023-08-08T00:03:47;94838.94;;;11.15;87.19
47636;BME280;33364;50.766;15.338;2023-08-08T00:06:12;94839.94;;;11.19;86.87
47636;BME280;33364;50.766;15.338;2023-08-08T00:08:39;94840.31;;;11.12;86.52
47636;BME280;33364;50.766;15.338;2023-08-08T00:11:04;94836.31;;;11.15;86.65
47636;BME280;33364;50.766;15.338;2023-08-08T00:13:30;94837.56;;;11.04;86.40
47636;BME280;33364;50.766;15.338;2023-08-08T00:15:56;94845.13;;;11.10;86.22
47636;BME280;33364;50.766;15.338;2023-08-08T00:18:22;94841.03;;;10.85;86.12
47636;BME280;33364;50.766;15.338;2023-08-08T00:20:48;94835.75;;;10.85;86.36
47636;BME280;33364;50.766;15.338;2023-08-08T00:23:14;94842.00;;;10.89;86.16
47636;BME280;33364;50.766;15.338;2023-08-08T00:25:39;94846.03;;;10.87;86.25
47636;BME280;33364;50.766;15.338;2023-08-08T00:28:05;94837.50;;;10.90;86.59
47636;BME280;33364;50.766;15.338;2023-08-08T00:30:31;94840.28;;;10.98;86.96
47636;BME280;33364;50.766;15.338;2023-08-08T00:32:57;94843.81;;;10.94;86.33
47636;BME280;33364;50.766;15.338;2023-08-08T00:35:22;94841.34;;;10.97;86.97
47636;BME280;33364;50.766;15.338;2023-08-08T00:37:49;94843.81;;;10.94;86.52
47636;BME280;33364;50.766;15.338;2023-08-08T00:40:14;94842.50;;;10.91;87.22
47636;BME280;33364;50.766;15.338;2023-08-08T00:42:41;94843.88;;;10.89;87.27
47636;BME280;33364;50.766;15.338;2023-08-08T00:45:07;94851.59;;;10.85;87.63
47636;BME280;33364;50.766;15.338;2023-08-08T00:47:33;94850.25;;;10.88;87.46
47636;BME280;33364;50.766;15.338;2023-08-08T00:50:00;94856.38;;;10.83;88.14
47636;BME280;33364;50.766;15.338;2023-08-08T00:52:28;94840.94;;;10.90;88.31
47636;BME280;33364;50.766;15.338;2023-08-08T00:54:54;94845.06;;;10.96;87.52
47636;BME280;33364;50.766;15.338;2023-08-08T00:57:20;94845.06;;;10.96;87.74
47636;BME280;33364;50.766;15.338;2023-08-08T00:59:46;94836.06;;;10.97;86.71
47636;BME280;33364;50.766;15.338;2023-08-08T01:02:12;94835.19;;;10.88;86.79
47636;BME280;33364;50.766;15.338;2023-08-08T01:04:38;94833.34;;;10.70;86.13
47636;BME280;33364;50.766;15.338;2023-08-08T01:07:24;94830.44;;;10.85;85.57
47636;BME280;33364;50.766;15.338;2023-08-08T01:10:05;94830.44;;;10.85;86.40
47636;BME280;33364;50.766;15.338;2023-08-08T01:12:40;94827.81;;;10.85;87.37
47636;BME280;33364;50.766;15.338;2023-08-08T01:15:07;94831.41;;;10.76;87.66
47636;BME280;33364;50.766;15.338;2023-08-08T01:17:35;94840.63;;;10.78;87.17
47636;BME280;33364;50.766;15.338;2023-08-08T01:20:03;94832.13;;;10.81;86.92
47636;BME280;33364;50.766;15.338;2023-08-08T01:22:36;94836.44;;;10.91;86.82
47636;BME280;33364;50.766;15.338;2023-08-08T01:25:04;94832.63;;;10.83;87.21
47636;BME280;33364;50.766;15.338;2023-08-08T01:27:30;94838.25;;;10.77;87.97
47636;BME280;33364;50.766;15.338;2023-08-08T01:29:56;94839.53;;;10.79;88.05
47636;BME280;33364;50.766;15.338;2023-08-08T01:32:22;94834.75;;;10.81;87.80
47636;BME280;33364;50.766;15.338;2023-08-08T01:34:48;94829.97;;;10.83;87.46
47636;BME280;33364;50.766;15.338;2023-08-08T01:37:25;94832.38;;;10.80;87.54
47636;BME280;33364;50.766;15.338;2023-08-08T01:39:54;94839.44;;;10.84;87.39
47636;BME280;33364;50.766;15.338;2023-08-08T01:42:24;94839.84;;;10.78;88.11
47636;BME280;33364;50.766;15.338;2023-08-08T01:44:53;94845.91;;;10.78;88.09
47636;BME280;33364;50.766;15.338;2023-08-08T01:47:19;94846.47;;;10.75;88.09
47636;BME280;33364;50.766;15.338;2023-08-08T01:49:45;94841.00;;;10.72;87.64
47636;BME280;33364;50.766;15.338;2023-08-08T01:52:11;94841.19;;;10.75;87.63
47636;BME280;33364;50.766;15.338;2023-08-08T01:54:36;94836.00;;;10.70;87.12
47636;BME280;33364;50.766;15.338;2023-08-08T01:57:03;94833.97;;;10.81;87.31
47636;BME280;33364;50.766;15.338;2023-08-08T01:59:29;94833.97;;;10.81;86.32
47636;BME280;33364;50.766;15.338;2023-08-08T02:01:55;94828.84;;;10.71;87.24
47636;BME280;33364;50.766;15.338;2023-08-08T02:04:20;94835.28;;;10.65;87.57
47636;BME280;33364;50.766;15.338;2023-08-08T02:06:46;94826.56;;;10.64;87.56
47636;BME280;33364;50.766;15.338;2023-08-08T02:09:12;94827.78;;;10.72;87.40
47636;BME280;33364;50.766;15.338;2023-08-08T02:11:41;94829.53;;;10.63;87.38
47636;BME280;33364;50.766;15.338;2023-08-08T02:14:06;94836.72;;;10.57;87.50
47636;BME280;33364;50.766;15.338;2023-08-08T02:16:32;94838.19;;;10.63;87.16
47636;BME280;33364;50.766;15.338;2023-08-08T02:19:00;94837.72;;;10.61;87.35
47636;BME280;33364;50.766;15.338;2023-08-08T02:21:26;94832.28;;;10.52;87.80
47636;BME280;33364;50.766;15.338;2023-08-08T02:23:52;94830.19;;;10.68;87.12
47636;BME280;33364;50.766;15.338;2023-08-08T02:26:18;94838.91;;;10.69;86.78
47636;BME280;33364;50.766;15.338;2023-08-08T02:28:44;94821.44;;;10.73;87.03
47636;BME280;33364;50.766;15.338;2023-08-08T02:31:10;94831.22;;;10.72;87.21
47636;BME280;33364;50.766;15.338;2023-08-08T02:33:35;94822.78;;;10.70;87.21
47636;BME280;33364;50.766;15.338;2023-08-08T02:36:01;94821.28;;;10.64;87.20
47636;BME280;33364;50.766;15.338;2023-08-08T02:38:27;94814.69;;;10.48;87.86
47636;BME280;33364;50.766;15.338;2023-08-08T02:40:53;94814.69;;;10.48;88.09
47636;BME280;33364;50.766;15.338;2023-08-08T02:43:19;94818.38;;;10.47;88.29
47636;BME280;33364;50.766;15.338;2023-08-08T02:45:45;94816.91;;;10.41;88.51
47636;BME280;33364;50.766;15.338;2023-08-08T02:48:10;94815.25;;;10.45;87.57
47636;BME280;33364;50.766;15.338;2023-08-08T02:50:36;94811.78;;;10.31;87.85
47636;BME280;33364;50.766;15.338;2023-08-08T02:53:02;94809.84;;;10.36;88.06
47636;BME280;33364;50.766;15.338;2023-08-08T02:55:28;94817.56;;;10.33;87.58
47636;BME280;33364;50.766;15.338;2023-08-08T02:57:53;94816.06;;;10.45;87.16
47636;BME280;33364;50.766;15.338;2023-08-08T03:00:20;94811.84;;;10.44;86.96
47636;BME280;33364;50.766;15.338;2023-08-08T03:02:45;94816.53;;;10.47;86.77
47636;BME280;33364;50.766;15.338;2023-08-08T03:05:11;94819.97;;;10.48;85.68
47636;BME280;33364;50.766;15.338;2023-08-08T03:07:37;94824.03;;;10.40;85.69
47636;BME280;33364;50.766;15.338;2023-08-08T03:10:03;94819.63;;;10.36;86.55
47636;BME280;33364;50.766;15.338;2023-08-08T03:12:30;94821.25;;;10.32;87.02
47636;BME280;33364;50.766;15.338;2023-08-08T03:14:56;94820.19;;;10.33;87.23
47636;BME280;33364;50.766;15.338;2023-08-08T03:17:22;94818.41;;;10.28;87.38
47636;BME280;33364;50.766;15.338;2023-08-08T03:19:48;94815.84;;;10.23;87.95
47636;BME280;33364;50.766;15.338;2023-08-08T03:22:13;94814.19;;;10.27;88.15
47636;BME280;33364;50.766;15.338;2023-08-08T03:24:39;94801.19;;;10.12;88.47
47636;BME280;33364;50.766;15.338;2023-08-08T03:27:05;94808.31;;;10.11;87.81
47636;BME280;33364;50.766;15.338;2023-08-08T03:29:31;94807.50;;;10.16;88.34
47636;BME280;33364;50.766;15.338;2023-08-08T03:31:57;94810.56;;;10.23;87.31
47636;BME280;33364;50.766;15.338;2023-08-08T03:34:23;94805.00;;;10.25;86.81
47636;BME280;33364;50.766;15.338;2023-08-08T03:36:48;94816.63;;;10.24;87.05
47636;BME280;33364;50.766;15.338;2023-08-08T03:39:14;94815.19;;;10.12;87.58
47636;BME280;33364;50.766;15.338;2023-08-08T03:41:40;94825.22;;;10.10;87.87
47636;BME280;33364;50.766;15.338;2023-08-08T03:44:06;94814.66;;;10.10;88.42
47636;BME280;33364;50.766;15.338;2023-08-08T03:46:32;94823.56;;;9.96;88.44
47636;BME280;33364;50.766;15.338;2023-08-08T03:48:59;94825.34;;;10.00;88.91
47636;BME280;33364;50.766;15.338;2023-08-08T03:51:25;94829.13;;;9.94;88.69
47636;BME280;33364;50.766;15.338;2023-08-08T03:53:51;94817.69;;;10.04;88.28
47636;BME280;33364;50.766;15.338;2023-08-08T03:56:16;94827.31;;;10.13;88.25
47636;BME280;33364;50.766;15.338;2023-08-08T03:58:42;94827.59;;;10.12;88.27
47636;BME280;33364;50.766;15.338;2023-08-08T04:01:08;94838.28;;;10.21;87.81
47636;BME280;33364;50.766;15.338;2023-08-08T04:03:35;94838.91;;;10.12;87.97
47636;BME280;33364;50.766;15.338;2023-08-08T04:06:02;94834.28;;;10.04;88.27
47636;BME280;33364;50.766;15.338;2023-08-08T04:08:28;94843.56;;;10.02;88.28
47636;BME280;33364;50.766;15.338;2023-08-08T04:10:53;94842.22;;;10.04;87.98
47636;BME280;33364;50.766;15.338;2023-08-08T04:13:20;94844.78;;;10.09;88.06
47636;BME280;33364;50.766;15.338;2023-08-08T04:15:46;94857.25;;;10.04;87.98
47636;BME280;33364;50.766;15.338;2023-08-08T04:18:12;94850.06;;;10.09;88.19
47636;BME280;33364;50.766;15.338;2023-08-08T04:20:37;94853.25;;;10.06;87.42
47636;BME280;33364;50.766;15.338;2023-08-08T04:23:04;94850.13;;;10.04;87.87
47636;BME280;33364;50.766;15.338;2023-08-08T04:25:29;94852.88;;;9.94;87.75
47636;BME280;33364;50.766;15.338;2023-08-08T04:27:55;94859.66;;;10.00;87.71
47636;BME280;33364;50.766;15.338;2023-08-08T04:30:21;94854.75;;;10.12;87.43
47636;BME280;33364;50.766;15.338;2023-08-08T04:32:47;94861.59;;;10.13;87.61
47636;BME280;33364;50.766;15.338;2023-08-08T04:35:12;94860.00;;;10.18;87.40
47636;BME280;33364;50.766;15.338;2023-08-08T04:37:38;94869.22;;;10.20;87.47
47636;BME280;33364;50.766;15.338;2023-08-08T04:40:05;94862.56;;;10.23;86.91
47636;BME280;33364;50.766;15.338;2023-08-08T04:42:31;94867.31;;;10.21;86.54
47636;BME280;33364;50.766;15.338;2023-08-08T04:44:57;94879.63;;;10.06;86.85
47636;BME280;33364;50.766;15.338;2023-08-08T04:47:23;94880.28;;;9.98;86.76
47636;BME280;33364;50.766;15.338;2023-08-08T04:49:49;94875.41;;;10.05;87.15
47636;BME280;33364;50.766;15.338;2023-08-08T04:52:14;94878.25;;;9.90;87.45
47636;BME280;33364;50.766;15.338;2023-08-08T04:54:40;94883.78;;;10.12;87.44
47636;BME280;33364;50.766;15.338;2023-08-08T04:57:06;94879.34;;;10.08;87.23
47636;BME280;33364;50.766;15.338;2023-08-08T04:59:32;94883.78;;;10.12;87.01
47636;BME280;33364;50.766;15.338;2023-08-08T05:01:58;94883.84;;;9.84;86.69
47636;BME280;33364;50.766;15.338;2023-08-08T05:04:23;94889.59;;;9.91;86.89
47636;BME280;33364;50.766;15.338;2023-08-08T05:06:49;94889.06;;;9.89;87.17
47636;BME280;33364;50.766;15.338;2023-08-08T05:09:15;94878.25;;;9.90;87.14
47636;BME280;33364;50.766;15.338;2023-08-08T05:11:41;94887.22;;;9.89;87.37
47636;BME280;33364;50.766;15.338;2023-08-08T05:14:07;94890.59;;;9.95;87.28
47636;BME280;33364;50.766;15.338;2023-08-08T05:16:33;94894.31;;;9.94;87.18
47636;BME280;33364;50.766;15.338;2023-08-08T05:18:58;94892.28;;;10.09;86.62
47636;BME280;33364;50.766;15.338;2023-08-08T05:21:25;94891.13;;;10.15;86.72
47636;BME280;33364;50.766;15.338;2023-08-08T05:23:50;94896.44;;;10.10;86.39
47636;BME280;33364;50.766;15.338;2023-08-08T05:26:17;94894.28;;;10.18;86.14
47636;BME280;33364;50.766;15.338;2023-08-08T05:28:42;94893.81;;;10.10;86.17
47636;BME280;33364;50.766;15.338;2023-08-08T05:31:08;94896.75;;;10.09;85.73
47636;BME280;33364;50.766;15.338;2023-08-08T05:33:34;94896.03;;;10.03;85.91
47636;BME280;33364;50.766;15.338;2023-08-08T05:36:00;94900.66;;;10.11;85.71
47636;BME280;33364;50.766;15.338;2023-08-08T05:38:26;94904.50;;;10.00;86.00
47636;BME280;33364;50.766;15.338;2023-08-08T05:40:52;94902.38;;;10.02;85.42
47636;BME280;33364;50.766;15.338;2023-08-08T05:43:18;94902.25;;;10.12;85.95
47636;BME280;33364;50.766;15.338;2023-08-08T05:45:44;94906.63;;;10.22;85.60
47636;BME280;33364;50.766;15.338;2023-08-08T05:48:10;94903.53;;;10.15;84.86
47636;BME280;33364;50.766;15.338;2023-08-08T05:50:38;94896.00;;;10.27;85.04
47636;BME280;33364;50.766;15.338;2023-08-08T05:53:04;94893.59;;;10.31;84.92
47636;BME280;33364;50.766;15.338;2023-08-08T05:55:30;94900.34;;;10.37;84.36
47636;BME280;33364;50.766;15.338;2023-08-08T05:57:55;94894.31;;;10.12;84.33
47636;BME280;33364;50.766;15.338;2023-08-08T06:00:22;94895.38;;;10.35;84.32
47636;BME280;33364;50.766;15.338;2023-08-08T06:02:47;94904.28;;;10.58;84.12
47636;BME280;33364;50.766;15.338;2023-08-08T06:05:14;94904.66;;;10.89;82.63
47636;BME280;33364;50.766;15.338;2023-08-08T06:07:39;94904.59;;;11.08;81.94
47636;BME280;33364;50.766;15.338;2023-08-08T06:10:06;94908.75;;;10.95;81.23
47636;BME280;33364;50.766;15.338;2023-08-08T06:12:33;94903.28;;;10.91;81.36
47636;BME280;33364;50.766;15.338;2023-08-08T06:14:59;94894.69;;;10.99;80.76
47636;BME280;33364;50.766;15.338;2023-08-08T06:17:25;94890.41;;;11.04;81.06
47636;BME280;33364;50.766;15.338;2023-08-08T06:19:51;94903.81;;;11.07;80.96
47636;BME280;33364;50.766;15.338;2023-08-08T06:22:18;94901.34;;;10.97;80.50
47636;BME280;33364;50.766;15.338;2023-08-08T06:24:44;94898.03;;;11.05;80.84
47636;BME280;33364;50.766;15.338;2023-08-08T06:27:10;94913.50;;;11.12;81.07
47636;BME280;33364;50.766;15.338;2023-08-08T06:29:36;94908.13;;;11.03;80.58
47636;BME280;33364;50.766;15.338;2023-08-08T06:32:01;94902.06;;;11.16;80.62
47636;BME280;33364;50.766;15.338;2023-08-08T06:34:27;94902.47;;;11.10;80.54
47636;BME280;33364;50.766;15.338;2023-08-08T06:36:53;94893.50;;;11.24;81.17
47636;BME280;33364;50.766;15.338;2023-08-08T06:39:19;94912.88;;;11.20;80.94
47636;BME280;33364;50.766;15.338;2023-08-08T06:41:46;94909.72;;;11.18;80.58
47636;BME280;33364;50.766;15.338;2023-08-08T06:44:13;94923.56;;;10.77;81.11
47636;BME280;33364;50.766;15.338;2023-08-08T06:46:38;94923.50;;;10.82;82.06
47636;BME280;33364;50.766;15.338;2023-08-08T06:49:04;94912.66;;;10.84;82.31
47636;BME280;33364;50.766;15.338;2023-08-08T06:51:32;94925.41;;;10.95;82.12
47636;BME280;33364;50.766;15.338;2023-08-08T06:53:58;94925.56;;;10.85;81.47
47636;BME280;33364;50.766;15.338;2023-08-08T06:56:24;94931.81;;;10.89;81.35
47636;BME280;33364;50.766;15.338;2023-08-08T06:58:52;94936.13;;;10.67;81.88
47636;BME280;33364;50.766;15.338;2023-08-08T07:01:18;94943.41;;;10.75;81.87
47636;BME280;33364;50.766;15.338;2023-08-08T07:03:45;94941.28;;;10.77;82.59
47636;BME280;33364;50.766;15.338;2023-08-08T07:06:10;94940.88;;;11.02;81.38
47636;BME280;33364;50.766;15.338;2023-08-08T07:08:36;94940.19;;;10.96;80.74
47636;BME280;33364;50.766;15.338;2023-08-08T07:11:05;94933.22;;;11.19;80.64
47636;BME280;33364;50.766;15.338;2023-08-08T07:13:34;94930.59;;;11.33;80.70
47636;BME280;33364;50.766;15.338;2023-08-08T07:16:00;94927.69;;;11.48;80.73
47636;BME280;33364;50.766;15.338;2023-08-08T07:18:26;94926.06;;;11.52;80.51
47636;BME280;33364;50.766;15.338;2023-08-08T07:20:52;94924.13;;;11.58;79.48
47636;BME280;33364;50.766;15.338;2023-08-08T07:23:18;94927.44;;;11.63;79.31
47636;BME280;33364;50.766;15.338;2023-08-08T07:25:45;94922.22;;;11.58;79.06
47636;BME280;33364;50.766;15.338;2023-08-08T07:28:12;94918.50;;;11.59;78.73
47636;BME280;33364;50.766;15.338;2023-08-08T07:30:40;94923.63;;;11.56;79.77
47636;BME280;33364;50.766;15.338;2023-08-08T07:33:07;94924.31;;;11.61;79.59
47636;BME280;33364;50.766;15.338;2023-08-08T07:35:35;94922.34;;;11.67;79.15
47636;BME280;33364;50.766;15.338;2023-08-08T07:38:01;94918.25;;;11.74;79.78
47636;BME280;33364;50.766;15.338;2023-08-08T07:40:27;94914.44;;;11.80;79.41
47636;BME280;33364;50.766;15.338;2023-08-08T07:42:53;94929.75;;;11.83;79.02
47636;BME280;33364;50.766;15.338;2023-08-08T07:45:19;94915.81;;;11.92;77.86
47636;BME280;33364;50.766;15.338;2023-08-08T07:47:45;94926.59;;;11.81;77.50
47636;BME280;33364;50.766;15.338;2023-08-08T07:50:11;94928.84;;;11.74;78.88
47636;BME280;33364;50.766;15.338;2023-08-08T07:52:38;94923.88;;;11.87;78.03
47636;BME280;33364;50.766;15.338;2023-08-08T07:55:04;94921.72;;;11.89;77.98
47636;BME280;33364;50.766;15.338;2023-08-08T07:57:32;94912.59;;;11.95;77.79
47636;BME280;33364;50.766;15.338;2023-08-08T08:00:00;94921.72;;;11.89;78.20
47636;BME280;33364;50.766;15.338;2023-08-08T08:02:33;94914.47;;;11.94;78.03
47636;BME280;33364;50.766;15.338;2023-08-08T08:04:58;94915.91;;;12.00;78.87
47636;BME280;33364;50.766;15.338;2023-08-08T08:07:24;94923.00;;;12.05;78.60
47636;BME280;33364;50.766;15.338;2023-08-08T08:09:50;94923.84;;;12.00;78.93
47636;BME280;33364;50.766;15.338;2023-08-08T08:12:16;94923.28;;;12.03;77.08
47636;BME280;33364;50.766;15.338;2023-08-08T08:14:41;94916.22;;;11.99;77.29
47636;BME280;33364;50.766;15.338;2023-08-08T08:17:08;94915.22;;;11.81;77.14
47636;BME280;33364;50.766;15.338;2023-08-08T08:19:34;94916.44;;;11.89;77.72
47636;BME280;33364;50.766;15.338;2023-08-08T08:22:00;94909.47;;;11.93;77.44
47636;BME280;33364;50.766;15.338;2023-08-08T08:24:25;94906.91;;;12.01;78.28
47636;BME280;33364;50.766;15.338;2023-08-08T08:26:51;94906.81;;;12.06;78.28
47636;BME280;33364;50.766;15.338;2023-08-08T08:29:17;94907.97;;;12.00;78.23
47636;BME280;33364;50.766;15.338;2023-08-08T08:31:43;94912.41;;;11.91;78.31
47636;BME280;33364;50.766;15.338;2023-08-08T08:34:09;94914.25;;;11.91;78.05
47636;BME280;33364;50.766;15.338;2023-08-08T08:36:35;94904.94;;;12.07;77.86
47636;BME280;33364;50.766;15.338;2023-08-08T08:39:00;94911.91;;;12.03;77.81
47636;BME280;33364;50.766;15.338;2023-08-08T08:41:28;94901.13;;;12.13;78.10
47636;BME280;33364;50.766;15.338;2023-08-08T08:43:54;94907.19;;;12.13;78.02
47636;BME280;33364;50.766;15.338;2023-08-08T08:46:21;94913.03;;;12.51;76.58
47636;BME280;33364;50.766;15.338;2023-08-08T08:48:49;94905.38;;;12.50;77.22
47636;BME280;33364;50.766;15.338;2023-08-08T08:51:15;94910.84;;;12.53;76.06
47636;BME280;33364;50.766;15.338;2023-08-08T08:53:42;94907.34;;;12.44;76.37
47636;BME280;33364;50.766;15.338;2023-08-08T08:56:09;94892.91;;;12.50;77.17
47636;BME280;33364;50.766;15.338;2023-08-08T08:58:35;94898.34;;;12.32;78.03
47636;BME280;33364;50.766;15.338;2023-08-08T09:01:01;94898.25;;;12.37;77.77
47636;BME280;33364;50.766;15.338;2023-08-08T09:03:27;94906.59;;;12.30;78.55
47636;BME280;33364;50.766;15.338;2023-08-08T09:05:53;94905.09;;;12.38;78.83
47636;BME280;33364;50.766;15.338;2023-08-08T09:08:20;94906.19;;;12.23;78.87
47636;BME280;33364;50.766;15.338;2023-08-08T09:10:46;94900.59;;;12.38;79.44
47636;BME280;33364;50.766;15.338;2023-08-08T09:13:11;94905.06;;;12.51;78.74
47636;BME280;33364;50.766;15.338;2023-08-08T09:15:38;94903.31;;;12.47;78.82
47636;BME280;33364;50.766;15.338;2023-08-08T09:18:03;94909.47;;;12.56;78.29
47636;BME280;33364;50.766;15.338;2023-08-08T09:20:29;94916.13;;;12.53;78.32
47636;BME280;33364;50.766;15.338;2023-08-08T09:22:56;94910.16;;;12.61;77.54
47636;BME280;33364;50.766;15.338;2023-08-08T09:25:23;94919.63;;;12.76;77.80
47636;BME280;33364;50.766;15.338;2023-08-08T09:27:52;94918.44;;;12.82;76.60
47636;BME280;33364;50.766;15.338;2023-08-08T09:30:22;94909.97;;;12.80;76.38
47636;BME280;33364;50.766;15.338;2023-08-08T09:32:48;94917.47;;;12.78;76.64
47636;BME280;33364;50.766;15.338;2023-08-08T09:35:15;94920.25;;;12.59;76.55
47636;BME280;33364;50.766;15.338;2023-08-08T09:37:41;94924.59;;;12.55;77.32
47636;BME280;33364;50.766;15.338;2023-08-08T09:40:08;94918.13;;;12.48;77.54
47636;BME280;33364;50.766;15.338;2023-08-08T09:42:35;94917.66;;;12.32;78.00
47636;BME280;33364;50.766;15.338;2023-08-08T09:45:01;94927.78;;;12.30;78.41
47636;BME280;33364;50.766;15.338;2023-08-08T09:47:27;94927.38;;;12.37;78.29
47636;BME280;33364;50.766;15.338;2023-08-08T09:50:01;94928.53;;;12.44;78.11
47636;BME280;33364;50.766;15.338;2023-08-08T09:52:28;94926.19;;;12.29;77.74
47636;BME280;33364;50.766;15.338;2023-08-08T09:57:22;94938.72;;;12.51;77.46
47636;BME280;33364;50.766;15.338;2023-08-08T09:59:48;94950.72;;;12.35;76.39
47636;BME280;33364;50.766;15.338;2023-08-08T10:02:15;94932.47;;;12.47;76.02
47636;BME280;33364;50.766;15.338;2023-08-08T10:04:41;94927.72;;;12.57;75.05
47636;BME280;33364;50.766;15.338;2023-08-08T10:07:07;94927.91;;;12.61;74.80
47636;BME280;33364;50.766;15.338;2023-08-08T10:09:33;94923.16;;;12.72;75.03
47636;BME280;33364;50.766;15.338;2023-08-08T10:11:59;94923.97;;;12.72;75.17
47636;BME280;33364;50.766;15.338;2023-08-08T10:14:30;94919.91;;;12.75;73.20
47636;BME280;33364;50.766;15.338;2023-08-08T10:16:57;94919.53;;;13.03;73.16
47636;BME280;33364;50.766;15.338;2023-08-08T10:19:23;94913.03;;;13.32;72.48
47636;BME280;33364;50.766;15.338;2023-08-08T10:21:56;94924.31;;;13.37;71.94
47636;BME280;33364;50.766;15.338;2023-08-08T10:24:22;94925.16;;;13.24;71.46
47636;BME280;33364;50.766;15.338;2023-08-08T10:26:58;94927.03;;;13.54;72.04
47636;BME280;33364;50.766;15.338;2023-08-08T10:29:28;94915.72;;;13.63;70.85
47636;BME280;33364;50.766;15.338;2023-08-08T10:32:01;94922.72;;;13.59;70.80
47636;BME280;33364;50.766;15.338;2023-08-08T10:34:43;94918.22;;;13.68;70.60
47636;BME280;33364;50.766;15.338;2023-08-08T10:37:12;94912.56;;;13.61;70.48
47636;BME280;33364;50.766;15.338;2023-08-08T10:39:58;94911.88;;;13.77;70.88
47636;BME280;33364;50.766;15.338;2023-08-08T10:42:27;94912.66;;;13.78;70.27
47636;BME280;33364;50.766;15.338;2023-08-08T10:44:55;94908.50;;;13.94;69.38
47636;BME280;33364;50.766;15.338;2023-08-08T10:50:05;94904.34;;;14.10;69.09
47636;BME280;33364;50.766;15.338;2023-08-08T10:52:33;94900.84;;;14.41;68.80
47636;BME280;33364;50.766;15.338;2023-08-08T10:55:01;94899.75;;;14.42;67.80
47636;BME280;33364;50.766;15.338;2023-08-08T10:57:28;94895.72;;;14.53;68.44
47636;BME280;33364;50.766;15.338;2023-08-08T10:59:54;94898.03;;;14.54;68.44
47636;BME280;33364;50.766;15.338;2023-08-08T11:02:20;94899.94;;;14.62;67.86
47636;BME280;33364;50.766;15.338;2023-08-08T11:04:48;94890.41;;;14.61;66.31
47636;BME280;33364;50.766;15.338;2023-08-08T11:07:14;94890.84;;;15.15;66.65
47636;BME280;33364;50.766;15.338;2023-08-08T11:09:42;94887.44;;;15.06;66.06
47636;BME280;33364;50.766;15.338;2023-08-08T11:12:15;94886.78;;;15.09;66.30
47636;BME280;33364;50.766;15.338;2023-08-08T11:14:41;94883.03;;;15.10;67.29
47636;BME280;33364;50.766;15.338;2023-08-08T11:17:07;94879.63;;;15.01;65.73
47636;BME280;33364;50.766;15.338;2023-08-08T11:19:39;94883.34;;;15.08;65.33
47636;BME280;33364;50.766;15.338;2023-08-08T11:22:09;94886.00;;;14.91;64.15
47636;BME280;33364;50.766;15.338;2023-08-08T11:24:36;94873.47;;;15.17;64.36
47636;BME280;33364;50.766;15.338;2023-08-08T11:27:02;94879.28;;;15.11;64.95
47636;BME280;33364;50.766;15.338;2023-08-08T11:29:29;94883.81;;;15.10;64.87
47636;BME280;33364;50.766;15.338;2023-08-08T11:32:02;94883.75;;;15.45;64.13
47636;BME280;33364;50.766;15.338;2023-08-08T11:34:33;94870.97;;;15.21;62.92
47636;BME280;33364;50.766;15.338;2023-08-08T11:36:59;94872.38;;;15.18;63.00
47636;BME280;33364;50.766;15.338;2023-08-08T11:39:26;94865.84;;;14.99;63.63
47636;BME280;33364;50.766;15.338;2023-08-08T11:41:53;94874.69;;;15.29;63.97
47636;BME280;33364;50.766;15.338;2023-08-08T11:44:19;94884.56;;;15.37;63.12
47636;BME280;33364;50.766;15.338;2023-08-08T11:46:45;94875.94;;;15.40;62.95
47636;BME280;33364;50.766;15.338;2023-08-08T11:49:15;94876.56;;;15.37;62.16
47636;BME280;33364;50.766;15.338;2023-08-08T11:51:45;94868.78;;;15.14;62.47
47636;BME280;33364;50.766;15.338;2023-08-08T11:54:11;94883.66;;;14.81;63.33
47636;BME280;33364;50.766;15.338;2023-08-08T11:56:38;94879.94;;;14.73;62.83
47636;BME280;33364;50.766;15.338;2023-08-08T11:59:04;94873.34;;;14.88;63.58
47636;BME280;33364;50.766;15.338;2023-08-08T12:01:32;94876.16;;;15.09;63.55
47636;BME280;33364;50.766;15.338;2023-08-08T12:04:03;94868.16;;;15.17;62.57
47636;BME280;33364;50.766;15.338;2023-08-08T12:06:29;94871.94;;;15.16;62.46
47636;BME280;33364;50.766;15.338;2023-08-08T12:08:55;94873.47;;;15.26;62.26
47636;BME280;33364;50.766;15.338;2023-08-08T12:11:21;94870.00;;;15.34;62.81
47636;BME280;33364;50.766;15.338;2023-08-08T12:13:47;94865.50;;;15.09;62.88
47636;BME280;33364;50.766;15.338;2023-08-08T12:16:13;94862.72;;;15.05;61.83
47636;BME280;33364;50.766;15.338;2023-08-08T12:18:40;94863.00;;;15.21;63.63
47636;BME280;33364;50.766;15.338;2023-08-08T12:21:07;94864.25;;;15.15;62.29
47636;BME280;33364;50.766;15.338;2023-08-08T12:23:34;94862.78;;;15.35;61.84
47636;BME280;33364;50.766;15.338;2023-08-08T12:26:02;94874.09;;;15.32;63.03
47636;BME280;33364;50.766;15.338;2023-08-08T12:28:29;94866.22;;;15.44;61.83
47636;BME280;33364;50.766;15.338;2023-08-08T12:30:55;94854.94;;;15.47;61.74
47636;BME280;33364;50.766;15.338;2023-08-08T12:33:21;94862.19;;;15.38;62.91
47636;BME280;33364;50.766;15.338;2023-08-08T12:35:47;94854.50;;;15.53;63.63
47636;BME280;33364;50.766;15.338;2023-08-08T12:38:14;94862.75;;;15.60;62.55
47636;BME280;33364;50.766;15.338;2023-08-08T12:40:40;94861.03;;;15.65;61.20
47636;BME280;33364;50.766;15.338;2023-08-08T12:43:06;94848.88;;;15.84;60.08
47636;BME280;33364;50.766;15.338;2023-08-08T12:45:32;94857.66;;;15.76;61.06
47636;BME280;33364;50.766;15.338;2023-08-08T12:47:58;94843.63;;;15.67;60.70
47636;BME280;33364;50.766;15.338;2023-08-08T12:50:24;94846.47;;;15.62;62.27
47636;BME280;33364;50.766;15.338;2023-08-08T12:52:50;94842.06;;;15.66;61.66